Time;durP1;ratioP1;P1;durP2;ratioP2;P2;SDS_P1;SDS_P2;PMS_P1;PMS_P2;Temp;Humidity;BMP_temperature;BMP_pressure;BME280_temperature;BME280_humidity;BME280_pressure;Samples;Min_cycle;Max_cycle;Signal;HPM_P1;HPM_P2
2021/12/20 09:03:30;;;;;;;;;53.67;45.00;;;;;14.23;42.96;102284.63;5655783;22;15208780;-95
2021/12/20 09:05:55;;;;;;;;;45.33;38.00;;;;;14.37;42.93;102283.81;6248168;22;44782;-95
2021/12/20 10:17:56;;;;;;;;;44.00;37.00;;;;;14.79;41.89;102312.53;6266036;22;45960;-96
2021/12/20 10:45:58;;;;;;;;;33.67;30.67;;;;;14.83;42.69;102306.06;6293200;22;45548;-93
2021/12/20 10:49:04;;;;;;;;;30.00;26.67;;;;;14.90;42.46;102315.47;6238469;22;44729;-94
2021/12/20 11:11:12;;;;;;;;;35.67;31.33;;;;;14.57;42.54;102252.41;6212590;22;45355;-95
2021/12/20 11:13:38;;;;;;;;;30.67;27.00;;;;;14.65;42.29;102271.50;6155899;22;45286;-94
2021/12/20 11:16:28;;;;;;;;;29.00;28.00;;;;;14.79;42.53;102283.16;6143673;22;47252;-95
2021/12/20 11:19:32;;;;;;;;;36.67;32.00;;;;;14.34;42.18;102214.59;6214454;22;45401;-95
2021/12/20 11:22:29;;;;;;;;;26.00;24.33;;;;;14.47;42.59;102231.59;6172375;22;45392;-95
2021/12/20 11:25:04;;;;;;;;;29.67;27.00;;;;;14.45;42.23;102225.47;6162630;22;45383;-95
2021/12/20 11:48:16;;;;;;;;;27.00;24.00;;;;;14.76;43.10;102275.31;6285941;22;46804;-96
2021/12/20 11:51:19;;;;;;;;;;;;;;;;;;;;;
2021/12/20 11:54:53;;;;;;;;;;;;;;;;;;;;;
2021/12/20 11:58:21;;;;;;;;;30.00;27.00;;;;;14.45;43.05;102204.13;6162652;23;68926;-96
2021/12/20 12:43:31;;;;;;;;;;;;;;;;;;;;;
2021/12/20 13:06:19;;;;;;;;;33.33;30.00;;;;;14.75;42.98;102166.72;6242334;22;45377;-90
2021/12/20 13:19:30;;;;;;;;;31.00;30.33;;;;;14.94;43.37;102199.38;6298983;22;46033;-94
2021/12/20 13:21:57;;;;;;;;;34.33;30.00;;;;;14.60;43.55;102159.56;6290053;22;45329;-92
2021/12/20 13:24:23;;;;;;;;;25.67;25.33;;;;;14.67;43.34;102177.91;6259571;22;46820;-92
2021/12/20 13:26:48;;;;;;;;;37.67;31.33;;;;;14.70;43.57;102181.25;6256953;22;45302;-94
2021/12/20 13:29:15;;;;;;;;;32.00;28.33;;;;;14.60;43.47;102166.75;6257156;22;53211;-93
2021/12/20 13:31:41;;;;;;;;;32.00;29.67;;;;;14.68;43.71;102176.94;6257307;22;45533;-93
2021/12/20 13:34:11;;;;;;;;;35.67;32.67;;;;;14.68;43.52;102183.16;6256475;22;47021;-95
2021/12/20 13:36:37;;;;;;;;;34.67;30.33;;;;;14.70;43.50;102191.94;6258191;22;45371;-93
2021/12/20 13:39:08;;;;;;;;;36.67;30.67;;;;;14.70;43.68;102199.94;6256911;22;45330;-93
2021/12/20 13:41:34;;;;;;;;;34.33;30.67;;;;;14.63;43.23;102177.22;6257951;22;45548;-93
2021/12/20 13:44:13;;;;;;;;;33.00;28.67;;;;;14.83;43.53;102200.03;6258183;22;48273;-94
2021/12/20 13:46:41;;;;;;;;;29.00;27.00;;;;;14.83;44.01;102186.66;6283691;22;45295;-92
2021/12/20 13:49:14;;;;;;;;;29.33;28.00;;;;;14.67;43.85;102152.03;6313917;22;45417;-92
2021/12/20 13:52:00;;;;;;;;;33.33;30.00;;;;;14.84;43.86;102176.84;6258428;22;45424;-94
2021/12/20 13:54:45;;;;;;;;;33.00;30.33;;;;;14.67;44.18;102160.06;6282136;22;48297;-93
2021/12/20 13:57:26;;;;;;;;;33.67;29.00;;;;;14.43;43.99;102117.88;6259352;22;45553;-95
2021/12/20 14:00:05;;;;;;;;;34.67;30.33;;;;;14.87;43.90;102179.38;6256684;22;45452;-94
2021/12/20 14:02:35;;;;;;;;;35.67;30.67;;;;;14.45;43.57;102105.31;6313555;22;45226;-94
2021/12/20 14:05:20;;;;;;;;;32.67;29.33;;;;;14.85;43.47;102183.91;6255162;22;47571;-94
2021/12/20 14:07:48;;;;;;;;;30.00;29.33;;;;;14.86;43.90;102166.91;6282406;22;45352;-95
2021/12/20 14:10:16;;;;;;;;;38.00;31.00;;;;;14.62;43.53;102132.78;6257678;22;45441;-94
2021/12/20 14:12:50;;;;;;;;;30.00;27.33;;;;;14.61;43.58;102131.91;6257179;22;45588;-93
2021/12/20 14:15:22;;;;;;;;;38.33;32.67;;;;;14.86;43.65;102174.09;6284135;22;47222;-94
2021/12/20 14:18:11;;;;;;;;;37.33;32.67;;;;;14.78;43.92;102158.53;6282647;22;45404;-93
2021/12/20 14:20:37;;;;;;;;;31.00;28.00;;;;;14.86;44.18;102160.72;6284039;22;45303;-94
2021/12/20 14:23:03;;;;;;;;;34.67;28.33;;;;;14.69;43.93;102134.09;6282686;22;45315;-92
2021/12/20 14:25:34;;;;;;;;;38.67;33.33;;;;;14.64;43.97;102124.66;6256761;22;47051;-93
2021/12/20 14:28:10;;;;;;;;;37.33;33.00;;;;;14.72;43.92;102136.59;6257885;22;45372;-94
2021/12/20 14:30:41;;;;;;;;;33.67;32.00;;;;;14.63;43.85;102118.44;6258263;22;45371;-93
2021/12/20 14:33:26;;;;;;;;;33.33;31.33;;;;;14.66;44.02;102128.94;6284814;22;45313;-95
2021/12/20 14:36:01;;;;;;;;;33.00;30.67;;;;;14.92;43.90;102165.69;6259939;22;46899;-92
2021/12/20 14:38:29;;;;;;;;;27.67;26.67;;;;;14.92;43.83;102145.19;6283919;22;45419;-95
2021/12/20 14:40:57;;;;;;;;;30.00;27.00;;;;;14.84;44.21;102134.97;6283757;22;45348;-95
2021/12/20 14:43:30;;;;;;;;;32.67;29.67;;;;;14.90;44.14;102141.75;6283840;22;45574;-94
2021/12/20 14:46:24;;;;;;;;;29.33;24.33;;;;;14.80;43.68;102129.91;6256449;22;48150;-92
2021/12/20 14:48:55;;;;;;;;;36.00;29.00;;;;;14.62;44.04;102100.72;6259843;22;45370;-92
2021/12/20 14:51:22;;;;;;;;;38.33;32.67;;;;;14.67;44.20;102109.31;6258457;22;45298;-92
2021/12/20 14:54:13;;;;;;;;;26.33;26.33;;;;;14.93;44.25;102151.38;6257057;22;45462;-92
2021/12/20 14:56:40;;;;;;;;;29.67;26.67;;;;;14.67;44.09;102114.66;6258489;22;47109;-93
2021/12/20 14:59:06;;;;;;;;;29.00;27.67;;;;;14.52;44.26;102089.75;6257133;22;45370;-93
2021/12/20 15:01:31;;;;;;;;;34.00;28.67;;;;;14.57;44.12;102102.84;6256389;22;45419;-94
2021/12/20 15:03:58;;;;;;;;;29.00;27.33;;;;;14.58;44.57;102100.06;6255991;22;45435;-94
2021/12/20 15:06:23;;;;;;;;;32.33;28.00;;;;;14.61;44.50;102104.34;6255863;22;48017;-91
2021/12/20 15:08:52;;;;;;;;;25.00;23.67;;;;;14.78;44.69;102132.66;6281322;22;45336;-93
2021/12/20 15:11:24;;;;;;;;;29.33;29.00;;;;;14.63;44.33;102102.44;6256490;22;45291;-96
2021/12/20 15:13:49;;;;;;;;;37.67;31.00;;;;;14.73;44.21;102124.94;6257820;22;45196;-94
2021/12/20 15:16:15;;;;;;;;;28.67;28.00;;;;;14.72;44.16;102117.88;6256997;22;48099;-93
2021/12/20 15:18:40;;;;;;;;;31.33;29.33;;;;;14.67;44.24;102111.13;6256958;22;45293;-93
2021/12/20 15:21:06;;;;;;;;;28.33;26.67;;;;;14.78;44.28;102131.81;6256368;22;45290;-93
2021/12/20 15:23:31;;;;;;;;;31.33;25.33;;;;;14.69;44.05;102112.72;6282947;22;45449;-93
2021/12/20 15:25:56;;;;;;;;;32.00;28.67;;;;;14.99;44.53;102155.50;6257196;22;47881;-93
2021/12/20 15:28:22;;;;;;;;;27.67;25.00;;;;;14.89;43.97;102134.69;6257624;22;45269;-94
2021/12/20 15:30:47;;;;;;;;;32.33;28.67;;;;;14.85;44.29;102127.81;6257240;22;45286;-93
2021/12/20 15:33:13;;;;;;;;;33.67;32.00;;;;;14.73;43.90;102103.59;6261049;22;45565;-92
2021/12/20 15:35:39;;;;;;;;;32.67;28.33;;;;;14.78;43.83;102105.09;6256546;22;47168;-93
2021/12/20 15:38:06;;;;;;;;;27.33;26.00;;;;;15.00;43.93;102141.19;6257336;22;45705;-92
2021/12/20 15:40:31;;;;;;;;;28.33;26.67;;;;;14.70;44.10;102087.75;6258860;22;45413;-92
2021/12/20 15:42:59;;;;;;;;;30.67;28.00;;;;;14.77;44.00;102103.38;6259485;22;45445;-92
2021/12/20 15:45:33;;;;;;;;;32.33;27.67;;;;;14.77;43.83;102092.69;6257618;22;48458;-93
2021/12/20 15:47:58;;;;;;;;;27.67;26.00;;;;;14.82;44.13;102112.81;6256728;22;45295;-92
2021/12/20 15:50:24;;;;;;;;;32.00;28.00;;;;;14.66;43.94;102080.88;6256197;22;45645;-92
2021/12/20 15:52:50;;;;;;;;;31.00;29.67;;;;;14.73;44.06;102108.91;6256886;22;45462;-91
2021/12/20 15:55:16;;;;;;;;;34.00;30.33;;;;;14.83;43.81;102113.69;6256111;22;47410;-92
2021/12/20 15:57:41;;;;;;;;;30.67;28.00;;;;;14.82;43.92;102117.31;6281921;22;45225;-92
2021/12/20 16:00:07;;;;;;;;;32.67;29.67;;;;;14.60;43.87;102076.78;6256321;22;45271;-92
2021/12/20 16:02:35;;;;;;;;;29.00;28.00;;;;;14.67;44.00;102095.94;6254268;22;45298;-92
2021/12/20 16:05:01;;;;;;;;;31.00;30.00;;;;;14.87;44.05;102117.91;6256996;22;47978;-92
2021/12/20 16:07:27;;;;;;;;;29.67;27.33;;;;;14.83;43.93;102103.00;6281886;22;45479;-92
2021/12/20 16:09:52;;;;;;;;;34.00;30.67;;;;;14.72;43.71;102077.81;6283363;22;45287;-93
2021/12/20 16:12:18;;;;;;;;;29.33;25.33;;;;;14.80;43.84;102087.16;6282318;22;45746;-92
2021/12/20 16:14:43;;;;;;;;;33.00;32.00;;;;;14.86;43.58;102096.59;6255042;22;46933;-89
2021/12/20 16:17:08;;;;;;;;;31.33;30.00;;;;;14.89;43.81;102093.78;6280377;22;45349;-89
2021/12/20 16:19:34;;;;;;;;;24.33;22.67;;;;;14.90;43.72;102091.00;6301213;22;45350;-91
2021/12/20 16:22:00;;;;;;;;;37.67;30.67;;;;;14.89;43.42;102097.28;6276110;22;45294;-91
2021/12/20 16:24:25;;;;;;;;;25.33;24.00;;;;;15.02;43.72;102112.53;6249327;22;47965;-91
2021/12/20 16:26:50;;;;;;;;;38.33;32.67;;;;;14.90;43.50;102099.00;6275078;22;45357;-88
2021/12/20 16:29:16;;;;;;;;;33.33;31.67;;;;;14.91;43.64;102108.75;6289065;22;45287;-90
2021/12/20 16:31:41;;;;;;;;;37.33;32.00;;;;;14.87;43.39;102096.53;6252912;22;45342;-90
2021/12/20 16:34:07;;;;;;;;;28.33;27.33;;;;;14.95;43.67;102098.69;6249174;22;47986;-91
2021/12/20 16:36:32;;;;;;;;;36.00;32.00;;;;;14.84;43.55;102077.97;6250226;22;45452;-91
2021/12/20 16:38:58;;;;;;;;;40.00;32.33;;;;;15.08;43.20;102111.28;6251643;22;45339;-91
2021/12/20 16:41:23;;;;;;;;;32.33;30.00;;;;;14.88;43.01;102084.88;6249547;22;45596;-91
2021/12/20 16:43:49;;;;;;;;;33.67;29.67;;;;;14.83;43.45;102076.28;6275786;22;45652;-90
2021/12/20 16:46:19;;;;;;;;;26.67;26.00;;;;;14.93;43.32;102088.13;6276069;22;45342;-90
2021/12/20 16:48:46;;;;;;;;;33.67;30.00;;;;;14.82;43.04;102069.22;6249703;22;45346;-89
2021/12/20 16:51:13;;;;;;;;;32.67;29.33;;;;;14.89;43.25;102075.91;6249531;22;45374;-91
2021/12/20 16:53:39;;;;;;;;;31.00;30.00;;;;;14.99;43.31;102094.88;6250005;22;47306;-91
2021/12/20 16:56:04;;;;;;;;;36.33;32.33;;;;;14.87;43.35;102072.47;6274138;22;45404;-89
2021/12/20 16:58:30;;;;;;;;;37.00;32.33;;;;;14.81;43.49;102051.47;6273037;22;45430;-89
2021/12/20 17:00:56;;;;;;;;;30.67;30.00;;;;;15.04;43.05;102076.72;6300467;22;45372;-89
2021/12/20 17:03:31;;;;;;;;;42.00;33.00;;;;;14.93;43.10;102069.41;6273038;22;47985;-89
2021/12/20 17:06:09;;;;;;;;;35.00;31.67;;;;;15.07;43.36;102097.06;6252779;22;45385;-89
2021/12/20 17:08:35;;;;;;;;;42.33;34.67;;;;;15.06;43.06;102087.31;6254585;22;45354;-88
2021/12/20 17:11:00;;;;;;;;;38.00;33.00;;;;;14.91;43.40;102051.75;6249912;22;45540;-90
2021/12/20 17:13:26;;;;;;;;;37.67;33.00;;;;;15.02;43.24;102064.44;6250298;22;46770;-89
2021/12/20 17:15:53;;;;;;;;;40.00;32.00;;;;;14.95;42.67;102059.47;6277179;22;45436;-88
2021/12/20 17:18:19;;;;;;;;;37.00;32.67;;;;;15.36;43.19;102115.69;6276629;22;45754;-89
2021/12/20 17:20:46;;;;;;;;;39.00;34.00;;;;;15.29;42.74;102103.66;6277122;22;45548;-89
2021/12/20 17:23:11;;;;;;;;;32.67;30.67;;;;;15.35;43.18;102107.75;6251290;22;47989;-89
2021/12/20 17:25:37;;;;;;;;;36.33;32.33;;;;;15.16;42.58;102064.38;6250520;22;45575;-89
2021/12/20 17:28:03;;;;;;;;;39.00;32.33;;;;;15.21;42.38;102068.56;6250750;22;45302;-89
2021/12/20 17:30:29;;;;;;;;;38.67;32.00;;;;;15.50;42.40;102100.53;6277347;22;45387;-89
2021/12/20 17:32:55;;;;;;;;;39.00;33.00;;;;;15.44;42.51;102082.22;6252436;22;47726;-89
2021/12/20 17:35:20;;;;;;;;;38.33;33.33;;;;;15.46;42.07;102073.13;6251285;22;45295;-90
2021/12/20 17:37:46;;;;;;;;;40.00;31.67;;;;;15.44;42.49;102064.34;6251993;22;45431;-88
2021/12/20 17:40:13;;;;;;;;;42.00;35.00;;;;;15.80;42.60;102118.19;6256476;22;45316;-91
2021/12/20 17:42:39;;;;;;;;;40.00;34.33;;;;;15.82;42.36;102110.03;6280429;22;46774;-89
2021/12/20 17:45:04;;;;;;;;;43.67;35.67;;;;;15.78;42.36;102104.03;6251033;22;45429;-91
2021/12/20 17:47:30;;;;;;;;;37.67;34.67;;;;;15.52;42.59;102045.09;6251339;22;45428;-91
2021/12/20 17:49:56;;;;;;;;;46.33;40.67;;;;;15.72;41.74;102083.03;6277670;22;45440;-90
2021/12/20 17:52:22;;;;;;;;;39.00;35.33;;;;;15.81;42.16;102085.09;6250186;22;46300;-89
2021/12/20 17:55:03;;;;;;;;;;;;;;;;;;;;;
2021/12/20 17:57:29;;;;;;;;;43.33;35.67;;;;;15.91;42.61;102088.00;6279887;22;70174;-89
2021/12/20 17:59:54;;;;;;;;;46.33;38.33;;;;;15.87;41.78;102069.56;6279086;22;45354;-91
2021/12/20 18:02:22;;;;;;;;;49.33;38.67;;;;;16.08;41.57;102101.22;6245496;22;47302;-90
2021/12/20 18:04:58;;;;;;;;;50.33;42.33;;;;;15.92;41.27;102079.00;6277292;22;45386;-89
2021/12/20 18:07:26;;;;;;;;;50.00;42.00;;;;;15.83;41.50;102067.09;6253369;22;45398;-91
2021/12/20 18:09:52;;;;;;;;;48.00;38.00;;;;;16.19;41.55;102130.78;6250785;22;45264;-90
2021/12/20 18:12:19;;;;;;;;;51.33;42.67;;;;;16.03;41.56;102096.16;6249037;22;47555;-89
2021/12/20 18:14:52;;;;;;;;;43.33;38.00;;;;;15.97;40.80;102081.38;6277868;22;45636;-89
2021/12/20 18:17:18;;;;;;;;;54.67;44.33;;;;;16.12;40.91;102116.09;6276704;22;45322;-89
2021/12/20 18:19:43;;;;;;;;;53.33;44.00;;;;;15.95;41.00;102088.63;6301606;22;45672;-89
2021/12/20 18:22:09;;;;;;;;;51.67;40.67;;;;;15.93;41.00;102085.22;6249701;22;47799;-90
2021/12/20 18:24:35;;;;;;;;;52.33;42.33;;;;;15.91;41.02;102079.09;6300688;22;45355;-90
2021/12/20 18:27:01;;;;;;;;;44.33;39.33;;;;;16.03;40.94;102096.16;6250602;22;45389;-91
2021/12/20 18:29:26;;;;;;;;;49.67;40.33;;;;;16.10;40.98;102101.94;6250122;22;45379;-92
2021/12/20 18:31:52;;;;;;;;;45.00;38.00;;;;;16.16;41.17;102112.25;6299139;22;45979;-92
2021/12/20 18:34:17;;;;;;;;;52.33;41.67;;;;;16.20;40.95;102113.75;6275217;22;45858;-92
2021/12/20 18:36:42;;;;;;;;;50.00;40.33;;;;;16.10;40.58;102091.25;6246532;22;45674;-89
2021/12/20 18:39:08;;;;;;;;;45.67;37.67;;;;;16.22;40.89;102101.09;6276299;22;45746;-87
2021/12/20 18:41:37;;;;;;;;;54.67;41.00;;;;;16.04;40.69;102079.97;6249918;22;47177;-88
2021/12/20 18:44:07;;;;;;;;;49.67;41.00;;;;;16.33;40.63;102142.34;6276604;22;45385;-92
2021/12/20 18:46:50;;;;;;;;;48.33;40.00;;;;;16.08;40.64;102103.88;6276862;22;45452;-91
2021/12/20 18:49:16;;;;;;;;;47.67;40.00;;;;;16.14;40.55;102122.22;6257361;22;45401;-92
2021/12/20 18:57:54;;;;;;;;;49.00;40.33;;;;;15.91;40.63;102076.44;6287495;22;45477;-91
2021/12/20 19:00:19;;;;;;;;;50.33;40.33;;;;;15.89;40.54;102079.19;6252268;22;45257;-94
2021/12/20 19:02:44;;;;;;;;;51.00;41.33;;;;;15.92;40.70;102088.88;6251244;22;45374;-91
